Time;durP1;ratioP1;P1;durP2;ratioP2;P2;SDS_P1;SDS_P2;PMS_P1;PMS_P2;Temp;Humidity;BMP_temperature;BMP_pressure;BME280_temperature;BME280_humidity;BME280_pressure;Samples;Min_cycle;Max_cycle;Signal;HPM_P1;HPM_P2
2023/05/19 00:01:58;;;;;;;7.63;3.00;;;;;;;5.17;100.00;102837.94;4932873;29;20187;-47
2023/05/19 00:04:25;;;;;;;7.75;3.45;;;;;;;5.24;100.00;102841.56;4953345;28;20578;-45
2023/05/19 00:06:52;;;;;;;6.68;3.17;;;;;;;5.28;100.00;102844.31;4953865;29;20202;-49
2023/05/19 00:09:18;;;;;;;5.65;2.72;;;;;;;5.13;100.00;102838.75;4944482;29;20281;-48
2023/05/19 00:11:44;;;;;;;7.95;3.00;;;;;;;5.07;100.00;102836.91;4935871;29;20263;-47
2023/05/19 00:14:10;;;;;;;4.72;2.80;;;;;;;5.20;100.00;102834.41;4953228;28;20890;-47
2023/05/19 00:16:37;;;;;;;7.25;3.03;;;;;;;5.29;100.00;102847.84;4938365;29;20179;-47
2023/05/19 00:19:05;;;;;;;5.10;2.70;;;;;;;5.47;100.00;102849.94;4934611;29;20176;-47
2023/05/19 00:21:31;;;;;;;5.07;2.92;;;;;;;5.46;100.00;102845.47;4917444;29;20186;-48
2023/05/19 00:23:57;;;;;;;6.72;3.30;;;;;;;5.39;100.00;102835.63;4941677;28;20694;-48
2023/05/19 00:26:25;;;;;;;7.63;2.63;;;;;;;5.45;100.00;102843.69;4946354;29;20183;-46
2023/05/19 00:28:58;;;;;;;6.05;3.38;;;;;;;5.50;100.00;102836.66;4939403;29;20202;-52
2023/05/19 00:31:23;;;;;;;3.42;2.63;;;;;;;5.49;100.00;102840.22;4953429;29;20241;-46
2023/05/19 00:33:49;;;;;;;6.25;3.25;;;;;;;5.26;100.00;102831.88;4939149;29;20213;-47
2023/05/19 00:36:14;;;;;;;4.55;2.50;;;;;;;5.19;100.00;102836.19;4951809;29;20218;-48
2023/05/19 00:38:40;;;;;;;4.80;3.08;;;;;;;5.20;100.00;102824.69;4951942;29;20198;-51
2023/05/19 00:41:06;;;;;;;7.85;3.67;;;;;;;4.94;100.00;102830.47;4951455;29;20209;-48
2023/05/19 00:43:35;;;;;;;6.03;3.30;;;;;;;4.83;100.00;102824.09;4937791;28;20211;-47
2023/05/19 00:46:01;;;;;;;3.80;2.70;;;;;;;4.95;100.00;102826.03;4948596;29;20175;-48
2023/05/19 00:48:27;;;;;;;4.50;2.80;;;;;;;5.12;100.00;102827.22;4937154;29;20690;-47
2023/05/19 00:50:56;;;;;;;4.07;2.53;;;;;;;5.14;100.00;102830.81;4951785;28;20190;-48
2023/05/19 00:53:23;;;;;;;4.55;3.30;;;;;;;5.19;100.00;102830.00;4946336;28;20233;-47
2023/05/19 00:55:49;;;;;;;5.00;2.60;;;;;;;5.25;100.00;102823.00;4937961;28;20238;-50
2023/05/19 00:58:17;;;;;;;5.38;3.20;;;;;;;5.03;100.00;102828.81;4951503;29;20174;-47
2023/05/19 01:00:43;;;;;;;5.50;3.03;;;;;;;4.86;100.00;102826.78;4952732;28;20265;-46
2023/05/19 01:03:11;;;;;;;5.60;3.13;;;;;;;4.86;100.00;102818.81;4949205;29;20302;-47
2023/05/19 01:05:40;;;;;;;6.65;3.78;;;;;;;4.79;100.00;102822.25;4952667;28;20290;-47
2023/05/19 01:08:06;;;;;;;8.27;3.00;;;;;;;4.89;100.00;102826.81;4948711;29;20308;-48
2023/05/19 01:10:32;;;;;;;7.13;3.17;;;;;;;5.01;100.00;102820.84;4951110;29;20186;-47
2023/05/19 01:12:58;;;;;;;5.45;2.90;;;;;;;5.02;100.00;102819.97;4950457;28;20657;-48
2023/05/19 01:15:25;;;;;;;3.97;2.78;;;;;;;5.09;100.00;102816.53;4948497;29;20182;-50
2023/05/19 01:18:06;;;;;;;6.82;3.25;;;;;;;5.04;100.00;102817.34;4951316;29;20533;-47
2023/05/19 01:20:40;;;;;;;5.80;3.17;;;;;;;4.99;100.00;102817.25;4952466;28;20190;-47
2023/05/19 01:23:26;;;;;;;5.47;3.28;;;;;;;4.91;100.00;102817.13;4921633;29;20234;-46
2023/05/19 01:25:57;;;;;;;3.45;2.33;;;;;;;4.88;100.00;102816.19;4950417;28;20195;-47
2023/05/19 01:28:41;;;;;;;5.72;2.75;;;;;;;4.53;100.00;102822.66;4948799;29;20200;-47
2023/05/19 01:31:10;;;;;;;6.75;3.60;;;;;;;4.45;100.00;102821.59;4952349;28;20534;-50
2023/05/19 01:33:39;;;;;;;7.07;3.03;;;;;;;4.40;100.00;102825.03;4950831;28;20225;-49
2023/05/19 01:36:07;;;;;;;6.05;3.10;;;;;;;4.54;100.00;102823.53;4952422;28;20159;-48
2023/05/19 01:38:33;;;;;;;6.88;2.80;;;;;;;4.63;100.00;102826.34;4950896;29;20206;-46
2023/05/19 01:41:02;;;;;;;4.82;2.58;;;;;;;4.61;100.00;102835.16;4952377;28;20604;-50
2023/05/19 01:43:28;;;;;;;5.82;2.92;;;;;;;4.66;100.00;102822.88;4933352;29;20209;-48
2023/05/19 01:45:54;;;;;;;5.47;2.60;;;;;;;4.69;100.00;102828.25;4937916;29;20557;-47
2023/05/19 01:48:20;;;;;;;3.33;2.72;;;;;;;4.63;100.00;102836.09;4951870;28;20202;-48
2023/05/19 01:50:46;;;;;;;4.10;2.42;;;;;;;4.55;100.00;102835.97;4942040;28;20226;-48
2023/05/19 01:53:11;;;;;;;5.78;2.78;;;;;;;4.63;100.00;102833.44;4932953;29;20669;-50
2023/05/19 01:55:46;;;;;;;5.50;2.90;;;;;;;4.61;100.00;102840.47;4944762;29;20201;-48
2023/05/19 01:58:27;;;;;;;6.88;2.63;;;;;;;4.62;100.00;102832.53;4937089;28;20281;-48
2023/05/19 02:00:55;;;;;;;6.40;2.92;;;;;;;4.37;100.00;102835.59;4949419;29;20614;-47
2023/05/19 02:03:30;;;;;;;7.28;2.67;;;;;;;4.39;100.00;102829.44;4944782;28;20206;-47
2023/05/19 02:06:27;;;;;;;3.83;2.92;;;;;;;4.33;100.00;102837.31;4945298;28;20190;-47
2023/05/19 02:09:16;;;;;;;8.50;3.33;;;;;;;3.98;100.00;102847.16;4950662;29;20214;-49
2023/05/19 02:11:53;;;;;;;6.60;2.90;;;;;;;3.95;100.00;102842.69;4959866;28;20329;-47
2023/05/19 02:14:43;;;;;;;5.20;3.13;;;;;;;4.03;100.00;102846.41;4952303;28;20194;-48
2023/05/19 02:17:13;;;;;;;6.30;2.88;;;;;;;4.15;100.00;102840.44;4935803;29;20268;-49
2023/05/19 02:19:39;;;;;;;7.75;3.60;;;;;;;3.94;100.00;102847.97;4952696;28;20582;-47
2023/05/19 02:22:05;;;;;;;4.55;2.97;;;;;;;3.96;100.00;102841.84;4951289;29;20203;-46
2023/05/19 02:24:31;;;;;;;6.50;3.08;;;;;;;3.99;100.00;102844.53;4947818;29;20709;-50
2023/05/19 02:26:58;;;;;;;5.15;2.70;;;;;;;3.90;100.00;102854.97;4953006;29;20279;-49
2023/05/19 02:29:24;;;;;;;4.63;3.05;;;;;;;4.04;100.00;102842.00;4948576;29;20198;-50
2023/05/19 02:31:49;;;;;;;5.85;2.80;;;;;;;4.09;100.00;102850.97;4942636;29;20179;-50
2023/05/19 02:34:15;;;;;;;3.97;2.63;;;;;;;4.15;100.00;102847.53;4951147;28;20221;-48
2023/05/19 02:36:44;;;;;;;3.63;2.40;;;;;;;4.18;100.00;102850.25;4947514;28;20190;-48
2023/05/19 02:39:10;;;;;;;5.35;2.85;;;;;;;4.22;100.00;102850.34;4948201;29;20203;-49
2023/05/19 02:41:36;;;;;;;3.50;2.63;;;;;;;4.20;100.00;102860.03;4951020;29;20202;-49
2023/05/19 02:44:02;;;;;;;4.60;2.55;;;;;;;4.12;100.00;102848.34;4964010;28;20704;-47
2023/05/19 02:46:28;;;;;;;5.35;2.72;;;;;;;4.16;100.00;102857.28;4950308;29;20301;-48
2023/05/19 02:48:54;;;;;;;5.93;2.88;;;;;;;4.05;100.00;102841.16;4952221;29;20257;-49
2023/05/19 02:51:20;;;;;;;3.95;2.45;;;;;;;4.12;100.00;102857.22;4944723;29;20187;-47
2023/05/19 02:53:45;;;;;;;4.93;3.10;;;;;;;4.01;100.00;102845.47;4952565;28;20206;-48
2023/05/19 02:56:10;;;;;;;5.97;2.75;;;;;;;3.83;100.00;102853.03;4948525;29;20182;-49
2023/05/19 02:58:36;;;;;;;6.00;2.78;;;;;;;3.67;100.00;102844.75;4950936;29;20179;-48
2023/05/19 03:01:01;;;;;;;5.78;2.75;;;;;;;3.59;100.00;102848.97;4951746;28;20192;-48
2023/05/19 03:03:27;;;;;;;4.70;2.80;;;;;;;3.67;100.00;102847.41;4949401;28;20768;-48
2023/05/19 03:05:53;;;;;;;8.32;3.30;;;;;;;3.54;100.00;102847.06;4950905;29;20190;-49
2023/05/19 03:08:19;;;;;;;7.72;3.40;;;;;;;3.49;100.00;102842.53;4951178;29;20207;-47
2023/05/19 03:10:45;;;;;;;5.10;2.97;;;;;;;3.48;100.00;102847.84;4956030;28;20202;-49
2023/05/19 03:13:11;;;;;;;7.03;3.50;;;;;;;3.51;100.00;102835.53;4951728;28;20309;-49
2023/05/19 03:15:37;;;;;;;4.13;3.25;;;;;;;3.71;100.00;102849.22;4950877;29;20195;-48
2023/05/19 03:18:03;;;;;;;9.55;3.90;;;;;;;3.62;100.00;102849.03;4944009;29;20591;-49
2023/05/19 03:20:29;;;;;;;4.43;3.00;;;;;;;3.68;100.00;102841.22;4950042;28;20175;-48
2023/05/19 03:22:56;;;;;;;8.43;3.28;;;;;;;3.72;100.00;102842.19;4950229;28;20553;-48
2023/05/19 03:25:22;;;;;;;6.82;3.40;;;;;;;3.79;100.00;102841.47;4962419;28;20210;-50
2023/05/19 03:27:47;;;;;;;5.50;3.00;;;;;;;3.78;100.00;102844.06;4950650;29;20207;-48
2023/05/19 03:30:13;;;;;;;4.88;2.78;;;;;;;3.90;100.00;102842.59;4950946;28;20724;-48
2023/05/19 03:32:52;;;;;;;4.38;2.83;;;;;;;4.04;100.00;102840.22;4963283;28;20186;-49
2023/05/19 03:35:17;;;;;;;5.30;2.90;;;;;;;4.02;100.00;102841.94;4950270;29;20451;-49
2023/05/19 03:37:43;;;;;;;5.78;2.97;;;;;;;4.07;100.00;102847.38;4942625;29;20210;-49
2023/05/19 03:40:09;;;;;;;7.18;3.33;;;;;;;4.20;100.00;102845.84;4958990;28;20199;-49
2023/05/19 03:42:36;;;;;;;7.65;3.28;;;;;;;4.18;100.00;102842.31;4934461;29;20229;-48
2023/05/19 03:45:02;;;;;;;8.80;3.70;;;;;;;4.17;100.00;102851.09;4961960;28;20246;-49
2023/05/19 03:47:30;;;;;;;7.18;3.70;;;;;;;4.21;100.00;102859.16;4966194;28;20245;-48
2023/05/19 03:50:22;;;;;;;7.32;3.42;;;;;;;4.23;100.00;102843.28;4943791;29;20187;-47
2023/05/19 03:52:54;;;;;;;6.72;3.72;;;;;;;4.26;100.00;102843.31;4950866;28;20912;-47
2023/05/19 03:55:28;;;;;;;8.27;3.72;;;;;;;4.44;100.00;102840.13;4949616;29;20187;-48
2023/05/19 03:57:55;;;;;;;8.98;4.07;;;;;;;4.50;100.00;102853.53;4960542;28;20211;-49
2023/05/19 04:00:21;;;;;;;7.28;3.70;;;;;;;4.59;100.00;102847.50;4949812;29;20611;-50
2023/05/19 04:02:48;;;;;;;9.52;3.83;;;;;;;4.63;100.00;102842.28;4930555;28;20649;-48
2023/05/19 04:05:14;;;;;;;4.00;3.58;;;;;;;4.66;100.00;102850.31;4942284;29;20198;-50
2023/05/19 04:07:40;;;;;;;4.65;3.38;;;;;;;4.79;100.00;102838.16;4950910;29;20662;-48
2023/05/19 04:10:06;;;;;;;6.68;3.88;;;;;;;4.80;100.00;102842.59;4945993;29;20649;-48
2023/05/19 04:12:31;;;;;;;6.32;3.72;;;;;;;4.89;100.00;102834.78;4950291;28;20527;-50
2023/05/19 04:14:58;;;;;;;5.10;4.05;;;;;;;4.87;100.00;102843.59;4949019;28;20510;-48
2023/05/19 04:17:25;;;;;;;4.82;3.70;;;;;;;4.94;100.00;102845.50;4948406;29;20196;-49
2023/05/19 04:19:51;;;;;;;5.72;3.33;;;;;;;5.05;100.00;102840.38;4950449;28;20195;-49
2023/05/19 04:22:17;;;;;;;8.23;4.50;;;;;;;4.98;100.00;102854.41;4950425;29;20191;-49
2023/05/19 04:24:42;;;;;;;3.83;3.08;;;;;;;4.96;100.00;102849.06;4955829;28;20234;-49
2023/05/19 04:27:10;;;;;;;6.88;3.63;;;;;;;5.03;100.00;102852.72;4949044;29;20305;-49
2023/05/19 04:29:37;;;;;;;6.22;4.20;;;;;;;5.00;100.00;102852.69;4950622;29;20183;-49
2023/05/19 04:32:06;;;;;;;8.13;3.80;;;;;;;4.93;100.00;102854.34;4950610;28;20599;-50
2023/05/19 04:34:39;;;;;;;6.78;4.25;;;;;;;4.91;100.00;102856.97;4951730;28;20219;-50
2023/05/19 04:37:08;;;;;;;6.35;3.80;;;;;;;5.02;100.00;102853.59;4942147;29;20199;-49
2023/05/19 04:39:37;;;;;;;7.55;3.90;;;;;;;5.16;100.00;102866.28;4941722;29;20193;-50
2023/05/19 04:42:03;;;;;;;8.15;4.22;;;;;;;5.23;100.00;102858.41;4949743;29;20190;-51
2023/05/19 04:44:30;;;;;;;4.22;3.40;;;;;;;5.34;100.00;102862.13;4957087;28;20342;-50
2023/05/19 04:46:57;;;;;;;6.15;3.58;;;;;;;5.41;100.00;102858.69;4949918;28;20286;-50
2023/05/19 04:49:23;;;;;;;6.85;3.60;;;;;;;5.49;100.00;102870.34;4946433;29;20261;-50
2023/05/19 04:51:51;;;;;;;6.97;4.15;;;;;;;5.53;100.00;102869.53;4943517;28;20630;-49
2023/05/19 04:54:20;;;;;;;6.82;4.00;;;;;;;5.65;100.00;102876.78;4944885;29;20226;-51
2023/05/19 04:56:45;;;;;;;6.97;3.78;;;;;;;5.65;100.00;102867.91;4949405;29;20609;-49
2023/05/19 04:59:11;;;;;;;6.82;3.80;;;;;;;5.63;100.00;102875.88;4949937;29;20193;-49
2023/05/19 05:01:39;;;;;;;6.25;3.53;;;;;;;5.70;100.00;102876.84;4949572;28;20625;-51
2023/05/19 05:04:07;;;;;;;4.75;3.63;;;;;;;5.84;100.00;102871.72;4948496;28;20535;-49
2023/05/19 05:06:37;;;;;;;10.20;4.18;;;;;;;5.96;100.00;102875.50;4950183;29;20225;-49
2023/05/19 05:09:04;;;;;;;6.30;3.97;;;;;;;6.09;100.00;102876.56;4949943;29;20187;-50
2023/05/19 05:11:31;;;;;;;5.65;4.10;;;;;;;6.13;100.00;102877.50;4948981;29;20190;-48
2023/05/19 05:13:56;;;;;;;9.02;4.55;;;;;;;6.18;100.00;102878.44;4948078;28;20214;-48
2023/05/19 05:16:25;;;;;;;5.72;3.70;;;;;;;6.32;100.00;102878.59;4949423;29;20182;-48
2023/05/19 05:18:51;;;;;;;8.07;4.20;;;;;;;6.47;100.00;102873.50;4949352;29;20198;-48
2023/05/19 05:21:17;;;;;;;9.73;4.32;;;;;;;6.51;100.00;102864.63;4948024;29;20651;-48
2023/05/19 05:23:43;;;;;;;9.57;4.57;;;;;;;6.61;100.00;102868.31;4938557;29;20270;-48
2023/05/19 05:26:14;;;;;;;6.85;4.32;;;;;;;6.72;100.00;102856.00;4952327;28;20295;-49
2023/05/19 05:28:40;;;;;;;6.18;3.92;;;;;;;6.89;100.00;102861.50;4948760;29;20675;-50
2023/05/19 05:31:05;;;;;;;5.32;4.72;;;;;;;7.01;100.00;102860.72;4950583;28;20194;-48
2023/05/19 05:33:31;;;;;;;7.55;4.40;;;;;;;7.15;100.00;102863.50;4948976;28;20535;-49
2023/05/19 05:35:56;;;;;;;9.00;4.43;;;;;;;7.27;100.00;102868.06;4948640;29;20182;-50
2023/05/19 05:38:23;;;;;;;9.13;5.10;;;;;;;7.42;100.00;102866.41;4946530;29;20262;-50
2023/05/19 05:40:48;;;;;;;8.48;4.95;;;;;;;7.59;100.00;102866.53;4945148;28;20624;-50
2023/05/19 05:43:14;;;;;;;7.13;4.60;;;;;;;7.75;100.00;102875.53;4956499;28;20199;-48
2023/05/19 05:45:46;;;;;;;10.60;4.65;;;;;;;7.97;100.00;102883.66;4947749;29;20665;-50
2023/05/19 05:48:12;;;;;;;8.15;4.43;;;;;;;8.15;100.00;102877.53;4948630;28;20219;-49
2023/05/19 05:50:38;;;;;;;12.68;5.55;;;;;;;8.28;100.00;102878.47;4949811;29;20186;-49
2023/05/19 05:53:05;;;;;;;7.32;5.07;;;;;;;8.38;100.00;102874.97;4941030;28;20205;-50
2023/05/19 05:55:33;;;;;;;13.07;5.32;;;;;;;8.48;100.00;102870.56;4943951;29;20285;-49
2023/05/19 05:58:01;;;;;;;10.48;5.20;;;;;;;8.72;100.00;102865.28;4955355;28;20280;-50
2023/05/19 06:00:27;;;;;;;11.85;5.43;;;;;;;8.91;100.00;102865.34;4947738;29;20183;-50
2023/05/19 06:02:53;;;;;;;10.77;5.53;;;;;;;9.23;100.00;102868.94;4942750;28;20547;-49
2023/05/19 06:05:19;;;;;;;9.95;5.30;;;;;;;9.49;100.00;102857.31;4948982;29;20214;-49
2023/05/19 06:07:45;;;;;;;13.38;5.28;;;;;;;9.81;100.00;102869.75;4944683;29;20200;-52
2023/05/19 06:10:15;;;;;;;13.00;5.45;;;;;;;9.96;100.00;102861.66;4948016;29;20175;-49
2023/05/19 06:12:42;;;;;;;12.23;4.72;;;;;;;10.11;100.00;102860.75;4948257;29;20176;-52
2023/05/19 06:15:10;;;;;;;14.02;4.93;;;;;;;10.23;100.00;102849.06;4948113;28;20182;-50
2023/05/19 06:17:35;;;;;;;8.55;4.45;;;;;;;10.31;100.00;102853.53;4943565;28;20689;-49
2023/05/19 06:20:05;;;;;;;13.00;4.15;;;;;;;10.36;100.00;102847.25;4948147;28;20175;-48
2023/05/19 06:22:31;;;;;;;13.25;5.28;;;;;;;10.46;100.00;102840.97;4947933;29;20182;-49
2023/05/19 06:24:56;;;;;;;9.70;4.05;;;;;;;10.42;100.00;102839.19;4941364;29;20297;-51
2023/05/19 06:27:22;;;;;;;10.13;4.28;;;;;;;10.53;100.00;102842.69;4947165;29;20199;-51
2023/05/19 06:29:47;;;;;;;14.23;4.63;;;;;;;10.50;100.00;102832.00;4943616;28;20277;-51
2023/05/19 06:32:14;;;;;;;15.35;4.85;;;;;;;10.46;100.00;102831.13;4946121;29;20182;-52
2023/05/19 06:34:39;;;;;;;12.40;4.97;;;;;;;10.60;100.00;102825.69;4952868;28;20219;-51
2023/05/19 06:37:05;;;;;;;9.07;4.22;;;;;;;10.70;100.00;102829.22;4946699;29;20176;-50
2023/05/19 06:39:32;;;;;;;9.13;4.20;;;;;;;10.91;100.00;102831.75;4944764;29;20215;-52
2023/05/19 06:41:58;;;;;;;9.57;4.97;;;;;;;10.65;100.00;102831.91;4940547;29;20176;-51
2023/05/19 06:44:43;;;;;;;11.55;4.65;;;;;;;10.84;100.00;102835.34;4940051;28;20350;-50
2023/05/19 06:47:10;;;;;;;15.20;4.90;;;;;;;10.96;100.00;102846.91;4947927;29;20753;-51
2023/05/19 06:49:36;;;;;;;14.23;4.65;;;;;;;10.94;100.00;102844.22;4930835;29;20204;-52
2023/05/19 06:52:02;;;;;;;9.23;4.50;;;;;;;11.19;100.00;102833.31;4947237;29;20217;-50
2023/05/19 06:54:28;;;;;;;9.18;3.78;;;;;;;11.29;99.36;102835.88;4946713;28;20712;-50
2023/05/19 06:56:53;;;;;;;10.65;4.05;;;;;;;11.30;97.73;102831.41;4939640;29;20194;-50
2023/05/19 06:59:21;;;;;;;13.27;4.75;;;;;;;11.16;95.79;102825.28;4950517;28;20623;-51
2023/05/19 07:01:46;;;;;;;10.93;5.30;;;;;;;11.31;94.53;102833.19;4947148;28;20253;-50
2023/05/19 07:04:12;;;;;;;9.50;4.53;;;;;;;11.17;93.48;102829.72;4943244;28;20717;-50
2023/05/19 07:06:39;;;;;;;12.50;4.13;;;;;;;11.21;94.08;102834.19;4951446;29;20233;-51
2023/05/19 07:09:05;;;;;;;11.30;5.22;;;;;;;11.17;93.46;102835.09;4948817;28;20261;-50
2023/05/19 07:11:31;;;;;;;12.65;5.53;;;;;;;11.19;93.35;102835.97;4949578;29;20225;-51
2023/05/19 07:13:57;;;;;;;10.30;4.65;;;;;;;11.39;92.99;102836.72;4949424;28;20203;-51
2023/05/19 07:16:26;;;;;;;12.55;4.82;;;;;;;11.44;93.12;102832.19;4946583;28;20221;-51
2023/05/19 07:18:53;;;;;;;11.90;4.50;;;;;;;11.33;92.99;102832.28;4934972;29;20191;-51
2023/05/19 07:21:19;;;;;;;11.15;5.15;;;;;;;11.50;93.24;102832.13;4949227;29;20184;-51
2023/05/19 07:23:46;;;;;;;11.07;4.68;;;;;;;11.57;92.69;102842.78;4949500;28;20205;-53
2023/05/19 07:26:11;;;;;;;9.52;4.75;;;;;;;11.38;92.27;102829.56;4946123;29;20658;-51
2023/05/19 07:28:37;;;;;;;14.80;4.30;;;;;;;11.43;92.38;102838.44;4950835;28;20198;-51
2023/05/19 07:31:02;;;;;;;12.43;4.65;;;;;;;11.69;91.37;102840.84;4947720;29;20178;-51
2023/05/19 07:33:28;;;;;;;10.35;4.25;;;;;;;11.82;90.15;102830.00;4948498;28;20230;-51
2023/05/19 07:35:53;;;;;;;7.30;3.33;;;;;;;11.98;89.00;102830.72;4947175;29;20226;-49
2023/05/19 07:38:19;;;;;;;7.38;3.95;;;;;;;11.94;88.02;102828.09;4950221;29;20197;-52
2023/05/19 07:40:45;;;;;;;8.65;3.38;;;;;;;11.79;87.43;102835.41;4951707;29;20175;-51
2023/05/19 07:43:10;;;;;;;9.20;3.45;;;;;;;11.77;87.60;102824.69;4945433;28;20215;-47
2023/05/19 07:45:36;;;;;;;12.80;3.67;;;;;;;11.70;86.25;102820.28;4929950;29;20210;-45
2023/05/19 07:48:02;;;;;;;8.30;3.10;;;;;;;11.91;85.27;102808.44;4944101;29;20198;-48
2023/05/19 07:50:28;;;;;;;10.32;2.92;;;;;;;11.84;84.16;102817.44;4947002;29;20265;-51
2023/05/19 07:52:54;;;;;;;7.22;3.10;;;;;;;11.98;83.44;102809.25;4927055;28;20570;-50
2023/05/19 07:55:21;;;;;;;13.07;3.85;;;;;;;11.93;83.43;102811.97;4947515;29;20206;-51
2023/05/19 07:57:48;;;;;;;9.63;3.30;;;;;;;11.88;83.64;102816.53;4944346;29;20183;-50
2023/05/19 08:00:14;;;;;;;9.77;3.65;;;;;;;11.97;83.04;102812.84;4950292;29;20175;-52
2023/05/19 08:02:40;;;;;;;11.65;3.58;;;;;;;11.61;82.92;102810.53;4946966;29;20657;-53
2023/05/19 08:05:08;;;;;;;9.88;3.42;;;;;;;11.82;82.55;102811.19;4949729;28;20242;-51
2023/05/19 08:07:33;;;;;;;8.98;3.03;;;;;;;12.20;81.29;102800.00;4951741;29;20559;-49
2023/05/19 08:09:59;;;;;;;10.02;3.55;;;;;;;12.33;80.58;102801.63;4945574;29;20270;-51
2023/05/19 08:12:24;;;;;;;8.43;3.00;;;;;;;12.48;78.68;102794.22;4947944;29;20550;-51
2023/05/19 08:14:50;;;;;;;10.10;2.63;;;;;;;12.81;75.07;102789.25;4946924;28;20215;-51
2023/05/19 08:17:15;;;;;;;5.25;2.20;;;;;;;12.38;72.74;102754.97;4943774;29;20179;-49
2023/05/19 08:19:41;;;;;;;8.32;2.42;;;;;;;12.25;71.38;102757.81;4949878;29;20190;-52
2023/05/19 08:22:06;;;;;;;9.63;2.97;;;;;;;12.44;70.70;102750.41;4934501;29;20678;-51
2023/05/19 08:24:32;;;;;;;12.20;2.78;;;;;;;12.46;70.92;102761.09;4951086;28;20245;-50
2023/05/19 08:26:58;;;;;;;6.20;2.22;;;;;;;12.42;69.63;102754.00;4950735;29;20195;-50
2023/05/19 08:29:23;;;;;;;8.82;2.42;;;;;;;12.45;68.42;102746.78;4938889;29;20191;-49
2023/05/19 08:31:49;;;;;;;7.68;2.30;;;;;;;12.44;67.19;102736.03;4946540;29;20254;-49
2023/05/19 08:34:14;;;;;;;7.82;2.70;;;;;;;12.32;66.96;102729.94;4946561;28;20214;-51
2023/05/19 08:36:40;;;;;;;7.30;2.20;;;;;;;12.64;67.18;102735.72;4942552;29;20271;-51
2023/05/19 08:39:06;;;;;;;9.73;2.60;;;;;;;12.77;67.22;102743.59;4946734;29;20274;-47
2023/05/19 08:41:31;;;;;;;9.57;2.60;;;;;;;12.66;67.94;102750.94;4934223;29;20591;-50
2023/05/19 08:43:58;;;;;;;12.38;2.97;;;;;;;12.27;68.82;102756.00;4944196;28;20207;-49
2023/05/19 08:46:24;;;;;;;10.45;3.10;;;;;;;12.22;69.54;102762.34;4948224;29;20545;-49
2023/05/19 08:48:56;;;;;;;5.97;2.67;;;;;;;12.58;69.65;102759.13;4947639;29;20230;-49
2023/05/19 08:51:32;;;;;;;8.32;2.67;;;;;;;13.09;70.47;102771.72;4947840;29;20269;-49
2023/05/19 08:54:06;;;;;;;10.73;3.17;;;;;;;12.66;70.37;102769.78;4948679;28;20306;-49
2023/05/19 08:56:32;;;;;;;8.30;3.17;;;;;;;12.61;71.02;102770.75;4946805;29;20183;-49
2023/05/19 08:58:59;;;;;;;10.10;3.08;;;;;;;12.65;70.13;102765.28;4947090;29;20557;-50
2023/05/19 09:01:27;;;;;;;11.32;3.08;;;;;;;12.51;69.68;102756.56;4950487;29;20588;-48
2023/05/19 09:03:53;;;;;;;5.80;2.35;;;;;;;12.70;69.05;102747.28;4947265;28;20686;-50
2023/05/19 09:06:20;;;;;;;9.82;3.20;;;;;;;12.34;68.79;102746.94;4946536;29;20192;-48
2023/05/19 09:08:46;;;;;;;8.82;3.08;;;;;;;12.86;69.33;102756.00;4932268;29;20407;-46
2023/05/19 09:11:11;;;;;;;9.82;2.63;;;;;;;13.17;69.35;102767.09;4948830;29;20213;-46
2023/05/19 09:13:37;;;;;;;8.43;3.00;;;;;;;13.40;67.31;102746.97;4948342;28;20195;-47
2023/05/19 09:16:03;;;;;;;6.45;2.55;;;;;;;13.10;66.43;102729.56;4943687;29;20187;-50
2023/05/19 09:18:29;;;;;;;8.15;2.30;;;;;;;13.35;65.09;102727.31;4944976;29;20646;-49
2023/05/19 09:20:59;;;;;;;7.43;2.45;;;;;;;13.95;62.49;102697.34;4948538;29;20179;-48
2023/05/19 09:23:29;;;;;;;9.10;2.17;;;;;;;14.21;61.98;102696.75;4947492;28;20237;-48
2023/05/19 09:25:56;;;;;;;10.75;2.63;;;;;;;14.35;60.90;102684.75;4945392;29;20861;-49
2023/05/19 09:28:26;;;;;;;5.72;2.10;;;;;;;14.29;58.86;102671.41;4949664;29;20526;-49
2023/05/19 09:31:02;;;;;;;9.90;2.30;;;;;;;14.66;57.43;102666.00;4943136;29;20618;-47
2023/05/19 09:33:28;;;;;;;7.47;2.13;;;;;;;14.84;57.28;102656.53;4947367;28;20210;-49
2023/05/19 09:35:56;;;;;;;6.90;2.72;;;;;;;14.40;57.41;102655.84;4946834;29;20512;-48
2023/05/19 09:38:26;;;;;;;7.00;2.08;;;;;;;14.69;58.01;102668.59;4948675;29;20182;-46
2023/05/19 09:40:52;;;;;;;10.50;2.40;;;;;;;14.50;58.77;102673.56;4947547;29;20254;-49
2023/05/19 09:43:18;;;;;;;9.20;2.47;;;;;;;14.18;59.06;102686.00;4940845;29;20210;-48
2023/05/19 09:45:43;;;;;;;8.70;2.35;;;;;;;14.60;60.45;102702.09;4945398;29;20186;-51
2023/05/19 09:48:09;;;;;;;7.65;2.95;;;;;;;14.76;59.52;102699.91;4948085;29;20233;-49
2023/05/19 09:50:35;;;;;;;7.35;2.58;;;;;;;14.58;58.67;102678.78;4933954;29;20609;-48
2023/05/19 09:53:02;;;;;;;9.05;2.60;;;;;;;14.37;58.72;102686.47;4946163;28;20183;-48
2023/05/19 09:55:28;;;;;;;8.27;2.53;;;;;;;14.85;57.93;102690.69;4948754;29;20303;-50
2023/05/19 09:57:56;;;;;;;9.90;2.60;;;;;;;15.03;58.23;102690.19;4948590;29;20207;-46
2023/05/19 10:00:22;;;;;;;7.90;2.58;;;;;;;15.04;57.60;102682.97;4948414;29;20257;-49
2023/05/19 10:02:49;;;;;;;8.13;2.17;;;;;;;14.50;57.74;102672.69;4936686;28;20246;-49
2023/05/19 10:05:19;;;;;;;10.02;2.67;;;;;;;14.83;57.64;102668.25;4943885;29;20188;-49
2023/05/19 10:07:47;;;;;;;4.63;2.10;;;;;;;15.01;55.79;102654.25;4948262;29;20608;-50
2023/05/19 10:10:14;;;;;;;7.28;2.20;;;;;;;14.93;56.34;102652.69;4942168;29;20182;-52
2023/05/19 10:12:40;;;;;;;9.00;2.13;;;;;;;14.99;55.99;102647.13;4942049;29;20297;-48
2023/05/19 10:15:14;;;;;;;4.93;1.63;;;;;;;15.11;56.19;102656.69;4948999;28;20576;-48
2023/05/19 10:17:41;;;;;;;9.70;2.20;;;;;;;15.02;56.08;102645.25;4943540;29;20198;-49
2023/05/19 10:20:12;;;;;;;8.07;2.08;;;;;;;15.15;55.50;102645.78;4949625;29;20249;-48
2023/05/19 10:22:39;;;;;;;8.52;2.05;;;;;;;14.48;56.47;102640.34;4945022;29;20233;-55
2023/05/19 10:25:05;;;;;;;7.72;2.35;;;;;;;15.37;55.21;102639.75;4946161;29;20224;-48
2023/05/19 10:27:34;;;;;;;11.02;2.30;;;;;;;15.69;54.11;102622.56;4949769;29;20502;-46
2023/05/19 10:30:06;;;;;;;6.50;2.28;;;;;;;14.67;55.75;102631.81;4945174;29;20183;-50
2023/05/19 10:32:32;;;;;;;6.82;2.38;;;;;;;15.69;56.64;102644.19;4945874;29;20214;-50
2023/05/19 10:35:04;;;;;;;9.60;2.63;;;;;;;15.38;55.84;102633.44;4959709;28;20579;-48
2023/05/19 10:37:40;;;;;;;8.27;2.25;;;;;;;15.79;55.52;102636.72;4950970;29;20739;-46
2023/05/19 10:40:12;;;;;;;9.10;2.42;;;;;;;15.53;55.50;102632.97;4950611;29;20241;-48
2023/05/19 10:43:01;;;;;;;8.60;2.47;;;;;;;15.39;55.90;102640.59;4948718;29;20368;-48
2023/05/19 10:45:28;;;;;;;5.93;2.50;;;;;;;15.80;56.68;102652.00;4950690;29;20650;-50
2023/05/19 10:47:54;;;;;;;8.25;2.60;;;;;;;16.03;56.86;102665.69;4950329;28;20214;-50
2023/05/19 10:50:20;;;;;;;9.57;2.50;;;;;;;16.27;57.12;102660.44;4951291;28;20179;-46
2023/05/19 10:52:54;;;;;;;6.22;2.67;;;;;;;15.32;57.40;102650.69;4950996;28;20586;-48
2023/05/19 10:55:46;;;;;;;9.48;2.67;;;;;;;14.58;58.78;102651.81;4948070;28;20282;-48
2023/05/19 10:58:11;;;;;;;10.43;3.17;;;;;;;14.74;59.43;102661.28;4946236;29;20274;-48
2023/05/19 11:00:38;;;;;;;6.90;2.67;;;;;;;14.83;59.40;102665.56;4950575;29;20273;-49
2023/05/19 11:03:17;;;;;;;5.53;2.55;;;;;;;14.97;59.26;102651.69;4946996;28;20558;-47
2023/05/19 11:05:45;;;;;;;8.15;2.47;;;;;;;14.73;59.01;102656.81;4946973;29;20278;-47
2023/05/19 11:08:11;;;;;;;9.52;2.53;;;;;;;15.45;57.69;102645.81;4951778;29;20206;-48
2023/05/19 11:10:37;;;;;;;8.32;2.35;;;;;;;14.42;57.33;102637.81;4952470;29;20192;-47
2023/05/19 11:13:05;;;;;;;6.95;2.53;;;;;;;14.56;57.98;102649.19;4948886;28;20205;-48
2023/05/19 11:15:35;;;;;;;7.38;2.55;;;;;;;14.28;57.55;102640.84;4949628;29;20182;-45
2023/05/19 11:18:03;;;;;;;7.63;1.75;;;;;;;15.14;56.74;102641.31;4943683;29;20565;-46
2023/05/19 11:20:33;;;;;;;8.30;2.38;;;;;;;14.60;55.52;102621.16;4951789;28;20191;-47
2023/05/19 11:23:18;;;;;;;6.30;2.05;;;;;;;14.71;55.98;102623.59;4945266;29;20183;-47
2023/05/19 11:25:48;;;;;;;6.72;1.80;;;;;;;15.32;54.70;102609.28;4948664;29;20191;-51
2023/05/19 11:28:25;;;;;;;3.33;1.50;;;;;;;15.47;52.56;102595.31;4951213;29;20579;-48